createdAt,value
2019-01-19T00:01:44.890Z,1.00
2019-01-19T00:05:10.622Z,1.00
2019-01-19T00:08:01.856Z,1.00
2019-01-19T00:11:13.627Z,0.90
2019-01-19T00:14:27.239Z,0.70
2019-01-19T00:17:25.884Z,0.70
2019-01-19T00:20:13.748Z,0.60
2019-01-19T00:23:09.741Z,0.60
2019-01-19T00:26:26.826Z,0.60
2019-01-19T00:29:03.939Z,0.70
2019-01-19T00:31:54.243Z,0.70
2019-01-19T00:35:18.006Z,0.80
2019-01-19T00:38:46.637Z,0.80
2019-01-19T00:42:04.931Z,0.80
2019-01-19T00:44:43.648Z,0.70
2019-01-19T00:48:04.757Z,0.70
2019-01-19T00:51:31.308Z,0.60
2019-01-19T00:54:29.069Z,0.60
2019-01-19T00:58:02.115Z,0.50
2019-01-19T01:01:10.031Z,0.50
2019-01-19T01:04:09.320Z,0.50
2019-01-19T01:07:08.553Z,0.40
2019-01-19T01:10:08.772Z,0.50
2019-01-19T01:13:29.863Z,0.40
2019-01-19T01:16:18.011Z,0.50
2019-01-19T01:19:32.656Z,0.60
2019-01-19T01:22:48.361Z,0.60
2019-01-19T01:26:04.735Z,0.60
2019-01-19T01:29:51.189Z,0.60
2019-01-19T01:32:50.401Z,0.60
2019-01-19T01:36:04.820Z,0.60
2019-01-19T01:39:26.969Z,0.60
2019-01-19T01:42:47.710Z,0.40
2019-01-19T01:46:18.671Z,0.00
2019-01-19T01:49:03.433Z,-0.10
2019-01-19T01:52:14.832Z,-0.20
2019-01-19T01:55:09.789Z,-0.20
2019-01-19T01:58:21.452Z,-0.20
2019-01-19T02:01:29.725Z,-0.30
2019-01-19T02:04:25.533Z,-0.20
2019-01-19T02:07:48.913Z,-0.10
2019-01-19T02:10:56.883Z,-0.10
2019-01-19T02:14:11.561Z,-0.10
2019-01-19T02:17:21.865Z,-0.10
2019-01-19T02:20:22.820Z,-0.10
2019-01-19T02:23:31.055Z,-0.20
2019-01-19T02:27:03.165Z,-0.30
2019-01-19T02:30:06.248Z,-0.30
2019-01-19T02:33:09.537Z,-0.40
2019-01-19T02:36:14.045Z,-0.40
2019-01-19T02:39:13.574Z,-0.40
2019-01-19T02:42:39.933Z,-0.40
2019-01-19T02:46:02.789Z,-0.30
2019-01-19T02:49:01.988Z,-0.20
2019-01-19T02:52:23.526Z,-0.30
2019-01-19T02:55:31.524Z,-0.50
2019-01-19T02:58:28.633Z,-0.80
2019-01-19T03:01:38.642Z,-0.90
2019-01-19T03:04:41.863Z,-0.90
2019-01-19T03:07:57.233Z,-0.90
2019-01-19T03:11:25.299Z,-0.90
2019-01-19T03:14:30.808Z,-0.70
2019-01-19T03:17:54.503Z,-0.60
2019-01-19T03:21:28.313Z,-0.50
2019-01-19T03:24:24.958Z,-0.50
2019-01-19T03:27:35.583Z,-0.40
2019-01-19T03:30:46.653Z,-0.30
2019-01-19T03:33:52.170Z,-0.30
2019-01-19T03:37:03.037Z,-0.30
2019-01-19T03:40:31.416Z,-0.40
2019-01-19T03:43:36.886Z,-0.40
2019-01-19T03:46:38.154Z,-0.40
2019-01-19T03:49:56.114Z,-0.40
2019-01-19T03:53:05.080Z,-0.40
2019-01-19T03:56:16.686Z,-0.40
2019-01-19T03:59:35.969Z,-0.40
2019-01-19T04:02:51.084Z,-0.40
2019-01-19T04:06:04.106Z,-0.50
2019-01-19T04:09:23.377Z,-0.40
2019-01-19T04:13:04.489Z,-0.60
2019-01-19T04:16:09.934Z,-0.70
2019-01-19T04:18:50.154Z,-0.70
2019-01-19T04:22:19.675Z,-0.70
2019-01-19T04:25:31.088Z,-0.70
2019-01-19T04:28:17.054Z,-0.60
2019-01-19T04:30:51.748Z,-0.60
2019-01-19T04:33:26.941Z,-0.60
2019-01-19T04:35:59.064Z,-0.50
2019-01-19T04:38:31.249Z,-0.50
2019-01-19T04:41:03.310Z,-0.40
2019-01-19T04:43:54.923Z,-0.30
2019-01-19T04:46:27.054Z,-0.30
2019-01-19T04:49:40.860Z,-0.20
2019-01-19T04:52:12.372Z,-0.20
2019-01-19T04:54:52.785Z,-0.30
2019-01-19T04:57:32.687Z,-0.30
2019-01-19T05:00:05.728Z,-0.30
2019-01-19T05:02:38.396Z,-0.30
2019-01-19T05:05:09.827Z,-0.20
2019-01-19T05:07:44.481Z,-0.20
2019-01-19T05:10:17.020Z,-0.20
2019-01-19T05:12:48.822Z,-0.20
2019-01-19T05:15:21.562Z,-0.20
2019-01-19T05:17:58.951Z,-0.20
2019-01-19T05:20:30.378Z,-0.30
2019-01-19T05:23:06.449Z,-0.30
2019-01-19T05:25:40.020Z,-0.30
2019-01-19T05:28:11.989Z,-0.40
2019-01-19T05:30:43.740Z,-0.40
2019-01-19T05:33:14.674Z,-0.40
2019-01-19T05:36:06.106Z,-0.40
2019-01-19T05:38:38.887Z,-0.40
2019-01-19T05:41:09.961Z,-0.50
2019-01-19T05:43:43.690Z,-0.50
2019-01-19T05:46:21.372Z,-0.50
2019-01-19T05:48:48.031Z,-0.50
2019-01-19T05:51:23.332Z,-0.60
2019-01-19T05:53:54.878Z,-0.70
2019-01-19T05:56:28.340Z,-0.80
2019-01-19T05:59:02.945Z,-0.80
2019-01-19T06:01:39.763Z,-0.80
2019-01-19T06:04:12.884Z,-0.90
2019-01-19T06:06:47.016Z,-0.80
2019-01-19T06:09:21.440Z,-0.80
2019-01-19T06:11:52.880Z,-0.80
2019-01-19T06:14:24.697Z,-0.70
2019-01-19T06:16:58.770Z,-0.70
2019-01-19T06:19:33.281Z,-0.60
2019-01-19T06:22:08.166Z,-0.60
2019-01-19T06:24:41.019Z,-0.60
2019-01-19T06:27:12.427Z,-0.60
2019-01-19T06:29:47.244Z,-0.60
2019-01-19T06:32:20.292Z,-0.60
2019-01-19T06:34:56.048Z,-0.60
2019-01-19T06:37:28.441Z,-0.60
2019-01-19T06:40:02.576Z,-0.70
2019-01-19T06:42:36.522Z,-0.80
2019-01-19T06:45:13.369Z,-1.00
2019-01-19T06:47:51.523Z,-1.00
2019-01-19T06:50:27.662Z,-0.90
2019-01-19T06:53:05.045Z,-0.90
2019-01-19T06:55:41.472Z,-0.80
2019-01-19T06:58:12.574Z,-0.80
2019-01-19T07:00:43.732Z,-0.80
2019-01-19T07:03:19.794Z,-0.80
2019-01-19T07:06:22.464Z,-0.80
2019-01-19T07:08:59.649Z,-0.80
2019-01-19T07:11:36.605Z,-0.80
2019-01-19T07:18:02.445Z,-0.80
2019-01-19T07:23:39.387Z,-0.70
2019-01-19T07:26:49.268Z,-0.70
2019-01-19T07:30:05.897Z,-0.70
2019-01-19T07:32:39.137Z,-0.70
2019-01-19T07:35:53.146Z,-0.70
2019-01-19T07:41:31.421Z,-0.70
2019-01-19T07:45:14.811Z,-0.80
2019-01-19T07:48:07.251Z,-0.90
2019-01-19T07:50:46.577Z,-0.90
2019-01-19T07:53:27.400Z,-0.80
2019-01-19T07:56:16.006Z,-0.80
2019-01-19T07:59:06.740Z,-0.70
2019-01-19T08:02:41.482Z,-0.80
2019-01-19T08:05:15.788Z,-0.70
2019-01-19T08:08:19.766Z,-0.80
2019-01-19T08:10:53.353Z,-0.80
2019-01-19T08:13:30.091Z,-0.70
2019-01-19T08:19:33.555Z,-0.60
2019-01-19T08:22:13.598Z,-0.60
2019-01-19T08:25:28.744Z,-0.60
2019-01-19T08:28:16.979Z,-0.50
2019-01-19T08:30:51.382Z,-0.50
2019-01-19T08:33:32.929Z,-0.40
2019-01-19T08:36:47.840Z,-0.40
2019-01-19T08:39:34.697Z,-0.40
2019-01-19T08:42:59.951Z,-0.40
2019-01-19T08:45:45.436Z,-0.40
2019-01-19T08:48:39.891Z,-0.30
2019-01-19T08:51:43.799Z,-0.30
2019-01-19T08:55:17.040Z,-0.30
2019-01-19T08:58:16.461Z,-0.20
2019-01-19T09:00:51.950Z,-0.20
2019-01-19T09:03:47.586Z,-0.10
2019-01-19T09:06:35.253Z,-0.10
2019-01-19T09:09:22.698Z,0.00
2019-01-19T09:11:57.801Z,0.10
2019-01-19T09:14:31.285Z,0.10
2019-01-19T09:17:03.751Z,0.10
2019-01-19T09:19:35.434Z,0.20
2019-01-19T09:22:12.261Z,0.20
2019-01-19T09:24:48.462Z,0.30
2019-01-19T09:28:13.443Z,0.40
2019-01-19T09:30:43.004Z,0.40
2019-01-19T09:33:12.365Z,0.50
2019-01-19T09:35:41.767Z,0.50
2019-01-19T09:38:11.266Z,0.60
2019-01-19T09:40:40.834Z,0.60
2019-01-19T09:43:10.263Z,0.70
2019-01-19T09:45:39.773Z,0.70
2019-01-19T09:48:09.427Z,0.70
2019-01-19T09:50:39.243Z,0.80
2019-01-19T09:53:09.060Z,0.80
2019-01-19T09:55:38.585Z,0.90
2019-01-19T09:58:08.114Z,1.00
2019-01-19T10:00:45.436Z,1.10
2019-01-19T10:03:15.149Z,1.10
2019-01-19T10:05:52.031Z,1.20
2019-01-19T10:08:27.841Z,1.20
2019-01-19T10:11:04.522Z,1.00
2019-01-19T10:13:37.264Z,1.00
2019-01-19T10:16:10.200Z,1.00
2019-01-19T10:18:42.372Z,1.00
2019-01-19T10:21:15.143Z,1.00
2019-01-19T10:23:47.702Z,1.00
2019-01-19T10:26:21.194Z,1.00
2019-01-19T10:29:23.585Z,1.10
2019-01-19T10:32:18.594Z,1.10
2019-01-19T10:35:24.861Z,1.10
2019-01-19T10:38:12.197Z,1.20
2019-01-19T10:43:49.347Z,1.20
2019-01-19T10:49:25.627Z,0.70
2019-01-19T10:51:59.366Z,0.50
2019-01-19T10:54:32.744Z,0.50
2019-01-19T10:57:03.429Z,0.60
2019-01-19T10:59:34.173Z,0.60
2019-01-19T11:02:06.291Z,0.40
2019-01-19T11:04:36.805Z,0.10
2019-01-19T11:07:10.899Z,0.10
2019-01-19T11:09:42.420Z,0.20
2019-01-19T11:12:15.531Z,0.10
2019-01-19T11:14:48.406Z,0.00
2019-01-19T11:17:19.232Z,0.00
2019-01-19T11:19:51.286Z,-0.10
2019-01-19T11:22:23.159Z,-0.10
2019-01-19T11:24:57.275Z,-0.20
2019-01-19T11:27:28.280Z,-0.20
2019-01-19T11:29:58.385Z,-0.10
2019-01-19T11:32:29.304Z,-0.10
2019-01-19T11:34:59.301Z,-0.20
2019-01-19T11:37:29.275Z,-0.50
2019-01-19T11:40:00.246Z,-0.30
2019-01-19T11:42:31.706Z,-0.20
2019-01-19T11:45:01.729Z,-0.10
2019-01-19T11:47:31.972Z,-0.20
2019-01-19T11:50:02.425Z,-0.20
2019-01-19T11:52:33.598Z,0.00
2019-01-19T11:55:03.317Z,0.10
2019-01-19T11:57:32.707Z,0.20
2019-01-19T12:00:02.067Z,0.30
2019-01-19T12:02:36.980Z,0.30
2019-01-19T12:05:02.778Z,0.40
2019-01-19T12:07:32.344Z,0.10
2019-01-19T12:10:01.721Z,-0.20
2019-01-19T12:12:31.047Z,-0.40
2019-01-19T12:15:00.448Z,-0.40
2019-01-19T12:17:30.686Z,-0.50
2019-01-19T12:20:00.110Z,-0.70
2019-01-19T12:22:29.510Z,-0.80
2019-01-19T12:24:58.943Z,-0.90
2019-01-19T12:27:28.290Z,-0.90
2019-01-19T12:29:57.644Z,-1.00
2019-01-19T12:32:27.073Z,-0.90
2019-01-19T12:34:56.419Z,-1.00
2019-01-19T12:37:25.826Z,-0.90
2019-01-19T12:39:55.983Z,-0.80
2019-01-19T12:42:25.523Z,-1.00
2019-01-19T12:44:57.449Z,-1.10
2019-01-19T12:47:33.879Z,-1.00
2019-01-19T12:50:03.373Z,-1.00
2019-01-19T12:52:37.094Z,-1.00
2019-01-19T12:55:07.621Z,-0.90
2019-01-19T12:57:36.930Z,-0.90
2019-01-19T13:00:11.335Z,-0.90
2019-01-19T13:17:04.287Z,-0.30
2019-01-19T13:19:59.891Z,0.00
2019-01-19T13:23:13.045Z,0.00
2019-01-19T13:26:41.694Z,0.10
2019-01-19T13:30:16.270Z,-0.20
2019-01-19T13:33:06.684Z,-0.30
2019-01-19T13:36:18.889Z,-0.50
2019-01-19T13:39:16.518Z,-0.40
2019-01-19T13:42:42.397Z,-0.30
2019-01-19T13:45:35.023Z,-0.10
2019-01-19T13:48:29.920Z,0.10
2019-01-19T13:51:39.250Z,0.20
2019-01-19T13:55:01.075Z,0.30
2019-01-19T13:58:03.244Z,0.30
2019-01-19T14:01:15.669Z,0.40
2019-01-19T14:04:26.872Z,0.30
2019-01-19T14:07:40.976Z,0.20
2019-01-19T14:10:39.445Z,-0.10
2019-01-19T14:13:43.667Z,-0.20
2019-01-19T14:17:18.232Z,-0.10
2019-01-19T14:20:18.676Z,0.10
2019-01-19T14:23:14.137Z,0.10
2019-01-19T14:26:36.273Z,0.20
2019-01-19T14:29:50.041Z,0.20
2019-01-19T14:32:51.197Z,0.40
2019-01-19T14:59:09.866Z,-0.10
2019-01-19T15:02:50.975Z,-0.20
2019-01-19T15:06:23.426Z,-0.20
2019-01-19T15:09:47.068Z,-0.30
2019-01-19T15:13:14.014Z,-0.20
2019-01-19T15:16:25.967Z,-0.10
2019-01-19T15:19:42.153Z,-0.10
2019-01-19T15:22:55.601Z,-0.10
2019-01-19T15:26:08.030Z,0.00
2019-01-19T15:29:25.326Z,0.10
2019-01-19T15:32:29.888Z,0.00
2019-01-19T15:35:45.698Z,0.00
2019-01-19T15:38:45.414Z,0.00
2019-01-19T15:41:56.803Z,0.00
2019-01-19T15:45:34.658Z,-0.20
2019-01-19T15:48:50.339Z,-0.40
2019-01-19T15:52:07.307Z,-0.40
2019-01-19T15:55:23.053Z,-0.50
2019-01-19T15:58:43.556Z,-0.60
2019-01-19T16:06:35.794Z,-0.60
2019-01-19T16:13:52.487Z,-0.60
2019-01-19T16:17:17.835Z,-0.70
2019-01-19T16:21:12.368Z,-0.70
2019-01-19T16:24:29.309Z,-0.70
2019-01-19T16:27:47.358Z,-0.80
2019-01-19T16:35:17.177Z,-0.60
2019-01-19T16:38:46.248Z,-0.70
2019-01-19T16:42:14.058Z,-0.70
2019-01-19T16:45:50.698Z,-0.50
2019-01-19T16:49:09.017Z,-0.60
2019-01-19T16:52:40.842Z,-0.70
2019-01-19T16:55:34.906Z,-0.70
2019-01-19T16:58:45.028Z,-0.70
2019-01-19T17:01:41.040Z,-0.80
2019-01-19T17:04:42.714Z,-0.80
2019-01-19T17:07:21.360Z,-0.80
2019-01-19T17:10:16.943Z,-0.80
2019-01-19T17:13:28.927Z,-0.80
2019-01-19T17:16:49.451Z,-0.70
2019-01-19T17:20:27.265Z,-0.80
2019-01-19T17:23:32.295Z,-0.70
2019-01-19T17:26:58.160Z,-0.60
2019-01-19T17:30:04.393Z,-0.50
2019-01-19T17:33:28.622Z,-0.60
2019-01-19T17:36:25.686Z,-0.80
2019-01-19T17:39:43.397Z,-0.90
2019-01-19T17:43:08.839Z,-1.10
2019-01-19T17:53:03.836Z,-1.20
2019-01-19T17:56:18.031Z,-1.10
2019-01-19T17:59:16.342Z,-1.20
2019-01-19T18:02:29.629Z,-1.30
2019-01-19T18:05:38.628Z,-1.20
2019-01-19T18:08:51.851Z,-1.00
2019-01-19T18:12:01.749Z,-1.00
2019-01-19T18:15:07.976Z,-1.20
2019-01-19T18:18:06.596Z,-1.40
2019-01-19T18:20:59.637Z,-1.50
2019-01-19T18:24:25.945Z,-1.50
2019-01-19T18:27:19.362Z,-1.60
2019-01-19T18:30:25.743Z,-1.70
2019-01-19T18:33:26.281Z,-1.60
2019-01-19T18:36:30.355Z,-1.50
2019-01-19T18:39:54.971Z,-1.30
2019-01-19T18:42:56.593Z,-1.20
2019-01-19T18:46:06.831Z,-1.10
2019-01-19T18:49:20.678Z,-1.20
2019-01-19T18:52:30.378Z,-1.10
2019-01-19T18:55:25.010Z,-1.10
2019-01-19T18:58:27.257Z,-1.00
2019-01-19T19:01:41.528Z,-1.00
2019-01-19T19:04:52.662Z,-0.90
2019-01-19T19:07:36.790Z,-0.80
2019-01-19T19:10:49.525Z,-0.80
2019-01-19T19:14:10.947Z,-0.80
2019-01-19T19:17:18.463Z,-1.00
2019-01-19T19:20:15.472Z,-1.20
2019-01-19T19:23:20.743Z,-1.40
2019-01-19T19:26:25.877Z,-1.40
2019-01-19T19:29:33.723Z,-1.30
2019-01-19T19:32:52.428Z,-1.20
2019-01-19T19:36:04.603Z,-1.10
2019-01-19T19:38:57.888Z,-1.00
2019-01-19T19:41:59.128Z,-1.10
2019-01-19T19:45:19.168Z,-1.00
2019-01-19T19:48:32.604Z,-1.10
2019-01-19T19:51:32.418Z,-1.10
2019-01-19T19:54:01.850Z,-1.10
2019-01-19T19:56:29.603Z,-1.10
2019-01-19T19:58:58.972Z,-1.20
2019-01-19T20:01:28.359Z,-1.10
2019-01-19T20:03:57.691Z,-1.10
2019-01-19T20:06:27.038Z,-1.10
2019-01-19T20:08:56.375Z,-1.10
2019-01-19T20:11:25.820Z,-1.10
2019-01-19T20:13:55.258Z,-1.10
2019-01-19T20:16:24.631Z,-1.00
2019-01-19T20:18:53.919Z,-1.00
2019-01-19T20:21:23.201Z,-1.10
2019-01-19T20:23:52.517Z,-1.20
2019-01-19T20:26:22.688Z,-1.30
2019-01-19T20:28:53.616Z,-1.60
2019-01-19T20:31:22.950Z,-1.80
2019-01-19T20:33:52.300Z,-1.90
2019-01-19T20:36:21.596Z,-1.90
2019-01-19T20:38:50.926Z,-1.90
2019-01-19T20:41:20.169Z,-1.80
2019-01-19T20:43:49.467Z,-1.80
2019-01-19T20:46:18.722Z,-1.70
2019-01-19T20:48:48.229Z,-1.70
2019-01-19T20:51:17.513Z,-1.80
2019-01-19T20:53:46.802Z,-1.70
2019-01-19T20:56:16.059Z,-1.70
2019-01-19T20:58:45.386Z,-1.60
2019-01-19T21:01:14.835Z,-1.50
2019-01-19T21:03:56.230Z,-1.50
2019-01-19T21:06:25.502Z,-1.50
2019-01-19T21:08:54.772Z,-1.50
2019-01-19T21:11:24.039Z,-1.50
2019-01-19T21:13:53.417Z,-1.50
2019-01-19T21:16:22.669Z,-1.50
2019-01-19T21:18:52.080Z,-1.50
2019-01-19T21:21:21.357Z,-1.50
2019-01-19T21:23:50.766Z,-1.50
2019-01-19T21:26:20.034Z,-1.50
2019-01-19T21:28:49.300Z,-1.70
2019-01-19T21:31:18.480Z,-2.00
2019-01-19T21:33:47.741Z,-2.40
2019-01-19T21:36:17.022Z,-2.40
2019-01-19T21:38:46.293Z,-2.50
2019-01-19T21:41:15.476Z,-2.70
2019-01-19T21:43:44.705Z,-2.60
2019-01-19T21:46:13.858Z,-2.50
2019-01-19T21:48:43.149Z,-2.40
2019-01-19T21:51:12.427Z,-2.30
2019-01-19T21:53:41.749Z,-2.30
2019-01-19T21:56:11.004Z,-2.40
2019-01-19T21:58:40.296Z,-2.50
2019-01-19T22:01:09.508Z,-2.50
2019-01-19T22:03:38.700Z,-2.60
2019-01-19T22:06:07.957Z,-2.60
2019-01-19T22:08:37.127Z,-2.50
2019-01-19T22:11:06.399Z,-2.50
2019-01-19T22:13:35.572Z,-2.70
2019-01-19T22:16:04.854Z,-2.70
2019-01-19T22:18:34.112Z,-2.90
2019-01-19T22:21:03.413Z,-2.80
2019-01-19T22:23:32.627Z,-2.80
2019-01-19T22:26:01.878Z,-2.80
2019-01-19T22:28:31.152Z,-2.70
2019-01-19T22:31:00.329Z,-2.60
2019-01-19T22:33:29.572Z,-2.80
2019-01-19T22:35:58.785Z,-2.70
2019-01-19T22:38:27.972Z,-2.60
2019-01-19T22:40:57.264Z,-2.50
2019-01-19T22:43:31.618Z,-2.50
2019-01-19T22:46:00.846Z,-2.40
2019-01-19T22:48:30.124Z,-2.40
2019-01-19T22:50:59.392Z,-2.30
2019-01-19T22:53:28.619Z,-2.10
2019-01-19T22:55:57.886Z,-2.00
2019-01-19T22:58:27.057Z,-2.00
2019-01-19T23:01:21.540Z,-1.90
2019-01-19T23:03:50.824Z,-1.90
2019-01-19T23:06:20.058Z,-1.90
2019-01-19T23:08:49.317Z,-1.90
2019-01-19T23:11:18.462Z,-1.80
2019-01-19T23:13:47.742Z,-1.80
2019-01-19T23:16:16.983Z,-1.80
2019-01-19T23:18:46.171Z,-2.00
2019-01-19T23:21:15.448Z,-2.20
2019-01-19T23:23:44.688Z,-2.50
2019-01-19T23:26:14.236Z,-2.60
2019-01-19T23:28:43.502Z,-2.90
2019-01-19T23:31:12.652Z,-2.80
2019-01-19T23:33:41.921Z,-2.60
2019-01-19T23:36:11.194Z,-2.50
2019-01-19T23:38:40.480Z,-2.70
2019-01-19T23:41:09.721Z,-2.60
2019-01-19T23:43:38.993Z,-2.50
2019-01-19T23:46:08.183Z,-2.40
2019-01-19T23:48:37.350Z,-2.40
2019-01-19T23:51:06.605Z,-2.30
2019-01-19T23:53:35.866Z,-2.50
2019-01-19T23:56:05.141Z,-2.60
2019-01-19T23:58:34.379Z,-2.90
